Аэропорт: Ширак. Гюмри

ICAO: UDSG

METAR:
2021-04-21 22:00:00
UDSG 212200Z VRB02KT 9999 FEW049 09/06 Q1017 R02/CLRD70 NOSIG
METAR:
2021-04-21 17:10:00
TAF UDSG 211710Z 2118/2218 02006KT 9999 SCT040 TEMPO 2118/2123 VRB16KT BKN030CB